CDT,Max TemperatureF,Mean TemperatureF,Min TemperatureF,Max Dew PointF,MeanDew PointF,Min DewpointF,Max Humidity, Mean Humidity, Min Humidity, Max Sea Level PressureIn, Mean Sea Level PressureIn, Min Sea Level PressureIn, Max VisibilityMiles, Mean VisibilityMiles, Min VisibilityMiles, Max Wind SpeedMPH, Mean Wind SpeedMPH, Max Gust SpeedMPH,PrecipitationIn, CloudCover, Events, WindDirDegrees
2013-10-1,73,64,54,56,50,38,91,63,37,29.98,29.83,29.75,10,10,10,17,9,24,0.00,0,,232
2013-10-2,72,52,33,44,37,32,97,59,24,30.12,30.04,29.96,10,10,10,9,2,,0.00,1,,155
2013-10-3,67,58,49,58,49,35,97,75,42,29.96,29.92,29.87,10,10,3,15,6,22,0.17,5,Rain,72
2013-10-4,54,53,52,53,52,51,99,97,92,30.06,30.00,29.91,10,6,1,16,8,21,0.42,8,Rain-Thunderstorm,67
2013-10-5,59,56,53,60,56,52,100,98,90,30.04,29.86,29.71,10,5,0,16,11,25,0.39,8,Fog-Rain-Thunderstorm,85
2013-10-6,55,48,41,54,41,34,99,73,47,29.74,29.71,29.67,10,10,7,10,5,,0.01,3,,258
2013-10-7,61,49,37,45,41,36,98,77,42,30.06,29.88,29.70,10,10,5,14,6,20,0.01,3,Rain,287
2013-10-8,72,52,32,46,40,32,99,66,33,30.12,30.07,30.03,10,10,10,20,4,25,0.00,0,,178
2013-10-9,70,56,43,48,45,41,93,67,42,30.18,30.14,30.09,10,10,5,16,6,20,0.00,0,,184
2013-10-10,69,52,35,47,43,35,98,72,39,30.16,30.11,30.05,10,10,7,12,2,17,0.00,0,,141
2013-10-11,72,58,44,56,50,44,96,76,51,30.06,29.99,29.90,10,9,2,17,6,24,0.00,3,,124
2013-10-12,65,55,46,55,45,35,80,63,43,30.13,29.94,29.85,10,10,10,18,10,25,0.00,5,Thunderstorm,217
2013-10-13,55,44,33,39,36,32,96,71,42,30.41,30.32,30.15,10,10,4,14,5,20,0.00,1,,291
2013-10-14,58,42,27,40,34,26,96,73,40,30.44,30.34,30.15,10,10,10,14,4,18,0.00,0,,104
2013-10-15,53,48,44,52,46,40,99,91,80,30.14,29.86,29.71,10,7,1,13,9,21,0.14,7,Rain,146
2013-10-16,49,46,42,45,41,37,99,84,68,29.92,29.83,29.73,10,9,2,10,6,,0.00,8,Rain,290
2013-10-17,51,40,28,37,35,28,100,81,50,29.90,29.83,29.77,10,8,0,12,2,,0.00,4,Fog,254
2013-10-18,44,38,31,43,38,32,100,93,80,29.91,29.83,29.76,10,9,3,13,3,18,0.02,6,Rain,262
2013-10-19,48,36,26,37,32,27,100,90,46,29.87,29.76,29.66,10,8,1,17,2,31,0.06,4,Rain,239
2013-10-20,41,35,28,40,34,28,100,96,83,29.82,29.74,29.65,10,7,0,14,4,24,0.05,7,Fog-Rain,180
2013-10-21,37,34,30,37,25,18,91,72,53,29.87,29.83,29.70,10,10,5,16,11,24,0.00,8,,270
2013-10-22,43,34,25,28,24,21,87,69,46,29.97,29.91,29.85,10,10,10,13,8,18,0.00,5,,301
2013-10-23,38,30,23,29,24,20,87,72,57,29.99,29.96,29.93,10,10,4,13,4,20,0.00,6,,287
2013-10-24,39,34,30,28,24,20,89,69,52,30.26,30.13,29.99,10,10,10,12,6,21,0.00,6,Rain,292
2013-10-25,48,38,27,31,27,23,92,67,47,30.29,30.10,29.73,10,10,10,23,7,31,0.00,5,,233
2013-10-26,48,42,37,36,30,26,76,62,52,30.03,29.87,29.68,10,10,10,20,10,29,0.00,6,,291
2013-10-27,51,38,25,30,27,24,94,67,36,30.08,29.93,29.82,10,10,10,17,4,21,0.00,1,,240
2013-10-28,40,30,21,29,22,18,85,65,45,30.44,30.34,30.09,10,9,2,21,8,25,0.00,2,,50
2013-10-29,40,29,19,37,28,16,91,82,75,30.44,30.30,30.14,10,10,1,12,5,,0.00,6,,75
2013-10-30,50,44,38,50,42,37,100,95,90,30.13,29.98,29.75,7,3,0,10,5,,0.00,8,Fog-Rain,111
2013-10-31,52,46,40,52,48,39,100,99,95,29.74,29.43,29.25,7,2,0,15,3,23,0.03,8,Fog-Rain,271